Eglin Air Force Base Valparaiso US
ICAO: KVPS
IATA: VPS
Category: Large
Scheduled Services: Yes

Elevation: 87 ft
TransAlt. 18000 ft.

Airport Communications:
APP/DEP:125.1
ATIS:134.625
CLNC DEL:127.7
GND:121.8
PMSV METRO:34.25
COMD POST:31.805
PTD:139.3
TWR:118.2

KVPS Zoom In..

If you have problems with the map follow the link
https://www.worldairports.se/pages/airport.php?
ICAO=KVPS

Runways:

(A) RW 01 length 10001 ft width 299 ft
---- / hdg 12

(B) RW 12 length 11987 ft width 300 ft
---- / hdg 120

(C) RW 19 length 10001 ft width 299 ft
ILS 109.10 / hdg 192

(D) RW 30 length 11987 ft width 300 ft
ILS 110.30 / hdg 300

Location; KVPS
Day. 29 / Time. 12.26 Zulu
* Altimeter: 29.91
* Temperature: 11° c. 51.8°f.
* Wind from: 090° Speed 07 kn.
Dewpoint: 05° c.
Visibility: 10 Statute Miles.
Clouds: Broken 8000 ft.
Clouds: Broken 1000 ft.
Conditions: Light Rain.

KVPS 291226Z AUTO 09007KT 10SM -RA BKN080 BKN100 11/05 A2991 RMK AO2 RAB26 SLP136 $


Wind From 090°
Speed 07 kn.

 
 
jpsmedia worldairports.se 2020   terms of use